createdAt,value
2023-05-20T00:00:32.708Z,31.59
2023-05-20T00:03:03.459Z,31.55
2023-05-20T00:05:34.463Z,31.64
2023-05-20T00:08:08.810Z,31.60
2023-05-20T00:10:39.944Z,31.50
2023-05-20T00:13:10.816Z,31.52
2023-05-20T00:15:41.887Z,31.52
2023-05-20T00:18:12.629Z,31.53
2023-05-20T00:20:44.056Z,31.54
2023-05-20T00:23:14.792Z,31.59
2023-05-20T00:25:45.652Z,31.57
2023-05-20T00:28:16.578Z,31.58
2023-05-20T00:30:47.497Z,31.66
2023-05-20T00:33:18.340Z,31.70
2023-05-20T00:35:49.221Z,31.74
2023-05-20T00:38:19.946Z,31.77
2023-05-20T00:40:51.761Z,31.81
2023-05-20T00:43:24.038Z,31.89
2023-05-20T00:45:56.229Z,31.45
2023-05-20T00:48:26.550Z,31.77
2023-05-20T00:50:57.882Z,31.92
2023-05-20T00:53:28.946Z,32.01
2023-05-20T00:56:00.033Z,32.02
2023-05-20T00:58:30.864Z,32.10
2023-05-20T01:01:01.967Z,32.14
2023-05-20T01:03:33.278Z,32.13
2023-05-20T01:06:05.086Z,32.17
2023-05-20T01:08:37.125Z,32.20
2023-05-20T01:11:15.915Z,32.26
2023-05-20T01:13:49.674Z,31.77
2023-05-20T01:16:22.244Z,32.29
2023-05-20T01:18:56.696Z,32.28
2023-05-20T01:21:32.011Z,32.19
2023-05-20T01:24:03.189Z,32.34
2023-05-20T01:26:34.780Z,32.35
2023-05-20T01:29:06.270Z,32.37
2023-05-20T01:31:40.768Z,32.33
2023-05-20T01:34:12.518Z,32.42
2023-05-20T01:36:44.716Z,32.43
2023-05-20T01:39:16.864Z,32.27
2023-05-20T01:41:49.420Z,32.46
2023-05-20T01:44:20.218Z,32.46
2023-05-20T01:46:52.130Z,32.50
2023-05-20T01:49:23.033Z,32.37
2023-05-20T01:51:54.057Z,32.54
2023-05-20T01:54:24.840Z,32.54
2023-05-20T01:57:06.507Z,32.48
2023-05-20T01:59:37.417Z,32.54
2023-05-20T02:02:08.815Z,32.58
2023-05-20T02:04:39.512Z,32.55
2023-05-20T02:07:10.563Z,32.60
2023-05-20T02:09:41.289Z,32.62
2023-05-20T02:12:17.686Z,32.62
2023-05-20T02:14:49.587Z,32.67
2023-05-20T02:17:21.438Z,32.68
2023-05-20T02:19:52.291Z,32.68
2023-05-20T02:22:23.610Z,32.31
2023-05-20T02:24:54.447Z,32.72
2023-05-20T02:27:25.418Z,32.70
2023-05-20T02:29:56.350Z,32.77
2023-05-20T02:32:29.479Z,32.75
2023-05-20T02:35:00.251Z,32.76
2023-05-20T02:37:34.494Z,32.77
2023-05-20T02:40:06.645Z,32.81
2023-05-20T02:42:38.079Z,32.82
2023-05-20T02:45:09.714Z,32.84
2023-05-20T02:47:42.516Z,32.74
2023-05-20T02:50:13.488Z,32.82
2023-05-20T02:52:44.485Z,32.87
2023-05-20T02:55:16.346Z,32.88
2023-05-20T02:57:47.323Z,32.62
2023-05-20T03:00:18.401Z,32.86
2023-05-20T03:02:49.410Z,32.87
2023-05-20T03:05:20.376Z,32.94
2023-05-20T03:07:51.509Z,32.97
2023-05-20T03:10:22.480Z,32.99
2023-05-20T03:12:53.566Z,32.98
2023-05-20T03:15:24.477Z,33.04
2023-05-20T03:17:55.665Z,33.02
2023-05-20T03:20:30.542Z,33.07
2023-05-20T03:23:02.431Z,32.97
2023-05-20T03:25:33.819Z,33.12
2023-05-20T03:28:04.643Z,32.87
2023-05-20T03:30:35.556Z,33.03
2023-05-20T03:33:07.317Z,33.16
2023-05-20T03:35:38.400Z,33.21
2023-05-20T03:38:09.767Z,33.22
2023-05-20T03:40:42.328Z,33.13
2023-05-20T03:43:13.533Z,33.25
2023-05-20T03:45:44.336Z,33.30
2023-05-20T03:48:17.396Z,33.31
2023-05-20T03:50:48.413Z,33.33
2023-05-20T03:53:21.654Z,33.34
2023-05-20T03:55:52.562Z,33.34
2023-05-20T03:58:24.012Z,33.38
2023-05-20T04:00:54.789Z,33.31
2023-05-20T04:03:26.351Z,33.42
2023-05-20T04:05:57.292Z,33.39
2023-05-20T04:08:28.680Z,33.44
2023-05-20T04:10:59.843Z,33.49
2023-05-20T04:13:31.127Z,33.42
2023-05-20T04:16:03.453Z,33.53
2023-05-20T04:18:34.496Z,33.55
2023-05-20T04:21:06.029Z,33.57
2023-05-20T04:23:37.790Z,33.55
2023-05-20T04:26:08.706Z,33.55
2023-05-20T04:28:40.365Z,33.59
2023-05-20T04:31:12.145Z,33.58
2023-05-20T04:33:43.962Z,33.56
2023-05-20T04:36:17.650Z,33.56
2023-05-20T04:38:49.599Z,33.57
2023-05-20T04:41:20.675Z,33.61
2023-05-20T04:43:52.017Z,33.62
2023-05-20T04:46:23.151Z,33.61
2023-05-20T04:48:55.237Z,33.63
2023-05-20T04:51:25.971Z,33.58
2023-05-20T04:54:00.431Z,33.62
2023-05-20T04:56:32.550Z,33.67
2023-05-20T04:59:03.851Z,33.65
2023-05-20T05:01:34.603Z,33.69
2023-05-20T05:04:05.820Z,33.65
2023-05-20T05:06:36.813Z,33.72
2023-05-20T05:09:08.044Z,33.64
2023-05-20T05:11:41.538Z,33.72
2023-05-20T05:14:12.832Z,33.63
2023-05-20T05:16:43.979Z,33.32
2023-05-20T05:19:15.294Z,33.66
2023-05-20T05:21:46.992Z,33.78
2023-05-20T05:24:18.864Z,33.86
2023-05-20T05:26:49.882Z,33.87
2023-05-20T05:29:21.053Z,33.90
2023-05-20T05:31:52.209Z,33.92
2023-05-20T05:34:23.463Z,33.94
2023-05-20T05:36:54.307Z,33.87
2023-05-20T05:39:25.474Z,33.69
2023-05-20T05:41:57.616Z,33.52
2023-05-20T05:44:29.008Z,33.30
2023-05-20T05:47:00.176Z,33.11
2023-05-20T05:49:31.169Z,32.63
2023-05-20T05:52:02.558Z,32.82
2023-05-20T05:54:33.910Z,32.69
2023-05-20T05:57:06.488Z,32.60
2023-05-20T05:59:38.793Z,32.55
2023-05-20T06:02:12.220Z,32.44
2023-05-20T06:04:43.641Z,32.37
2023-05-20T06:07:15.256Z,32.33
2023-05-20T06:09:47.288Z,32.22
2023-05-20T06:12:18.151Z,32.19
2023-05-20T06:14:49.924Z,32.13
2023-05-20T06:17:20.947Z,32.00
2023-05-20T06:19:53.075Z,32.07
2023-05-20T06:22:25.486Z,31.90
2023-05-20T06:25:01.775Z,32.01
2023-05-20T06:27:34.284Z,31.99
2023-05-20T06:30:05.752Z,31.94
2023-05-20T06:32:36.710Z,31.87
2023-05-20T06:35:08.722Z,31.90
2023-05-20T06:37:39.661Z,31.89
2023-05-20T06:40:12.097Z,31.88
2023-05-20T06:42:43.190Z,31.85
2023-05-20T06:45:15.328Z,31.87
2023-05-20T06:47:58.949Z,31.88
2023-05-20T06:50:30.019Z,31.84
2023-05-20T06:53:02.630Z,31.80
2023-05-20T06:55:34.063Z,31.82
2023-05-20T06:58:05.388Z,31.79
2023-05-20T07:00:36.837Z,31.75
2023-05-20T07:03:08.195Z,31.78
2023-05-20T07:05:39.543Z,31.75
2023-05-20T07:08:12.936Z,31.79
2023-05-20T07:10:43.714Z,31.44
2023-05-20T07:13:14.926Z,31.77
2023-05-20T07:15:49.435Z,31.75
2023-05-20T07:18:21.292Z,31.76
2023-05-20T07:20:58.371Z,31.73
2023-05-20T07:23:43.965Z,31.76
2023-05-20T07:26:15.536Z,31.77
2023-05-20T07:28:48.529Z,31.73
2023-05-20T07:31:20.031Z,31.74
2023-05-20T07:33:52.549Z,31.72
2023-05-20T07:36:23.922Z,31.67
2023-05-20T07:39:03.657Z,31.77
2023-05-20T07:41:40.516Z,31.24
2023-05-20T07:44:12.768Z,31.77
2023-05-20T07:46:47.826Z,31.73
2023-05-20T07:49:19.078Z,31.74
2023-05-20T07:51:51.536Z,31.75
2023-05-20T07:54:22.903Z,31.57
2023-05-20T07:56:57.464Z,31.66
2023-05-20T07:59:28.564Z,31.71
2023-05-20T08:02:00.081Z,31.72
2023-05-20T08:04:31.474Z,31.70
2023-05-20T08:07:03.236Z,31.57
2023-05-20T08:09:47.922Z,31.75
2023-05-20T08:12:21.234Z,31.74
2023-05-20T08:14:52.268Z,31.75
2023-05-20T08:17:23.661Z,31.79
2023-05-20T08:19:54.886Z,31.76
2023-05-20T08:22:26.038Z,31.81
2023-05-20T08:24:57.872Z,31.78
2023-05-20T08:27:29.668Z,31.85
2023-05-20T08:30:01.234Z,31.82
2023-05-20T08:32:33.510Z,31.82
2023-05-20T08:35:05.425Z,31.82
2023-05-20T08:37:36.608Z,31.88
2023-05-20T08:40:08.188Z,31.84
2023-05-20T08:42:44.920Z,31.86
2023-05-20T08:45:20.602Z,31.36
2023-05-20T08:47:53.545Z,31.82
2023-05-20T08:50:24.651Z,31.90
2023-05-20T08:52:56.447Z,31.91
2023-05-20T08:55:44.714Z,31.92
2023-05-20T08:58:17.216Z,31.90
2023-05-20T09:00:48.399Z,31.88
2023-05-20T09:03:21.652Z,31.91
2023-05-20T09:05:53.030Z,31.88
2023-05-20T09:08:28.318Z,31.88
2023-05-20T09:10:59.360Z,31.84
2023-05-20T09:13:34.205Z,31.47
2023-05-20T09:16:06.387Z,31.78
2023-05-20T09:18:45.099Z,32.20
2023-05-20T09:21:16.551Z,32.34
2023-05-20T09:23:51.245Z,32.46
2023-05-20T09:26:23.641Z,32.59
2023-05-20T09:28:55.308Z,32.69
2023-05-20T09:31:37.027Z,32.72
2023-05-20T09:34:09.475Z,32.87
2023-05-20T09:36:43.197Z,33.00
2023-05-20T09:39:19.148Z,32.67
2023-05-20T09:42:08.999Z,32.92
2023-05-20T09:44:41.473Z,33.35
2023-05-20T09:47:14.424Z,33.51
2023-05-20T09:49:48.593Z,33.49
2023-05-20T09:52:21.443Z,33.56
2023-05-20T09:54:57.761Z,33.75
2023-05-20T09:57:28.869Z,33.81
2023-05-20T10:00:00.309Z,33.76
2023-05-20T10:02:52.243Z,33.76
2023-05-20T10:05:47.530Z,33.88
2023-05-20T10:08:54.632Z,33.91
2023-05-20T10:11:36.480Z,34.04
2023-05-20T10:14:16.383Z,34.09
2023-05-20T10:17:03.541Z,34.10
2023-05-20T10:19:37.769Z,34.14
2023-05-20T10:22:11.656Z,33.66
2023-05-20T10:24:46.260Z,34.20
2023-05-20T10:27:19.851Z,34.19
2023-05-20T10:29:55.049Z,34.22
2023-05-20T10:32:34.425Z,34.25
2023-05-20T10:35:11.485Z,34.17
2023-05-20T10:37:44.877Z,34.04
2023-05-20T10:40:17.792Z,34.29
2023-05-20T10:42:49.627Z,34.28
2023-05-20T10:45:34.360Z,34.25
2023-05-20T10:48:05.801Z,34.23
2023-05-20T10:50:42.231Z,33.86
2023-05-20T10:53:29.422Z,34.30
2023-05-20T10:56:04.458Z,34.22
2023-05-20T10:58:42.316Z,34.31
2023-05-20T11:01:15.649Z,34.29
2023-05-20T11:03:50.983Z,34.33
2023-05-20T11:06:22.180Z,34.25
2023-05-20T11:08:53.344Z,34.31
2023-05-20T11:11:25.464Z,34.29
2023-05-20T11:13:59.628Z,34.30
2023-05-20T11:16:30.502Z,34.26
2023-05-20T11:19:01.643Z,34.31
2023-05-20T11:21:32.875Z,34.30
2023-05-20T11:24:04.024Z,34.31
2023-05-20T11:26:36.227Z,34.31
2023-05-20T11:29:07.272Z,34.01
2023-05-20T11:31:40.718Z,34.24
2023-05-20T11:34:11.868Z,34.16
2023-05-20T11:36:46.277Z,34.15
2023-05-20T11:39:18.982Z,34.22
2023-05-20T11:41:50.203Z,34.15
2023-05-20T11:44:24.562Z,34.17
2023-05-20T11:47:03.005Z,34.21
2023-05-20T11:49:42.476Z,33.68
2023-05-20T11:52:15.456Z,34.26
2023-05-20T11:54:47.096Z,34.14
2023-05-20T11:57:18.115Z,34.19
2023-05-20T11:59:49.536Z,34.19
2023-05-20T12:02:20.660Z,34.17
2023-05-20T12:04:51.592Z,33.86
2023-05-20T12:07:22.820Z,34.08
2023-05-20T12:09:54.573Z,34.09
2023-05-20T12:12:26.911Z,34.03
2023-05-20T12:15:01.056Z,34.06
2023-05-20T12:17:33.889Z,34.01
2023-05-20T12:20:08.208Z,33.66
2023-05-20T12:22:39.575Z,33.52
2023-05-20T12:25:13.383Z,33.35
2023-05-20T12:27:49.531Z,33.16
2023-05-20T12:30:23.112Z,32.96
2023-05-20T12:32:54.675Z,32.74
2023-05-20T12:35:39.738Z,32.55
2023-05-20T12:38:11.784Z,32.43
2023-05-20T12:40:45.440Z,32.32
2023-05-20T12:43:16.556Z,32.20
2023-05-20T12:45:48.362Z,32.12
2023-05-20T12:48:21.036Z,31.96
2023-05-20T12:50:52.428Z,31.90
2023-05-20T12:53:23.386Z,31.79
2023-05-20T12:55:55.005Z,31.73
2023-05-20T12:58:26.323Z,31.60
2023-05-20T13:00:57.696Z,31.64
2023-05-20T13:03:28.873Z,31.53
2023-05-20T13:06:00.803Z,31.48
2023-05-20T13:08:34.387Z,31.45
2023-05-20T13:11:05.828Z,31.30
2023-05-20T13:13:36.938Z,31.27
2023-05-20T13:16:08.572Z,31.22
2023-05-20T13:18:40.313Z,31.15
2023-05-20T13:21:11.858Z,30.99
2023-05-20T13:23:44.002Z,31.02
2023-05-20T13:26:16.378Z,31.02
2023-05-20T13:28:48.873Z,30.79
2023-05-20T13:31:20.364Z,30.90
2023-05-20T13:33:51.728Z,30.84
2023-05-20T13:36:26.687Z,30.79
2023-05-20T13:39:00.896Z,30.66
2023-05-20T13:41:32.342Z,30.68
2023-05-20T13:44:06.432Z,30.62
2023-05-20T13:46:39.237Z,30.54
2023-05-20T13:49:10.468Z,30.53
2023-05-20T13:51:42.172Z,30.47
2023-05-20T13:54:13.404Z,30.45
2023-05-20T13:56:45.009Z,30.40
2023-05-20T13:59:16.427Z,30.39
2023-05-20T14:01:47.982Z,30.35
2023-05-20T14:04:19.376Z,30.37
2023-05-20T14:06:54.164Z,30.25
2023-05-20T14:09:25.531Z,30.24
2023-05-20T14:11:57.124Z,30.23
2023-05-20T14:14:28.393Z,30.07
2023-05-20T14:16:59.949Z,30.05
2023-05-20T14:19:32.799Z,30.25
2023-05-20T14:22:07.549Z,30.23
2023-05-20T14:24:41.795Z,30.22
2023-05-20T14:27:15.655Z,30.16
2023-05-20T14:29:49.902Z,30.27
2023-05-20T14:32:25.417Z,30.26
2023-05-20T14:34:57.389Z,30.24
2023-05-20T14:37:29.572Z,30.23
2023-05-20T14:40:01.007Z,30.18
2023-05-20T14:42:34.809Z,30.21
2023-05-20T14:45:06.902Z,30.19
2023-05-20T14:47:38.573Z,30.19
2023-05-20T14:50:10.412Z,30.14
2023-05-20T14:52:41.365Z,29.95
2023-05-20T14:55:12.575Z,30.13
2023-05-20T14:57:44.068Z,29.99
2023-05-20T15:00:15.878Z,30.09
2023-05-20T15:02:50.193Z,30.06
2023-05-20T15:05:21.670Z,30.01
2023-05-20T15:07:56.521Z,30.00
2023-05-20T15:10:27.941Z,30.03
2023-05-20T15:12:59.695Z,29.99
2023-05-20T15:15:30.903Z,29.99
2023-05-20T15:18:02.851Z,29.96
2023-05-20T15:20:36.934Z,29.92
2023-05-20T15:23:08.451Z,29.81
2023-05-20T15:25:40.090Z,29.88
2023-05-20T15:28:11.213Z,29.69
2023-05-20T15:30:53.350Z,29.83
2023-05-20T15:33:29.127Z,29.80
2023-05-20T15:36:01.402Z,29.81
2023-05-20T15:38:33.452Z,29.79
2023-05-20T15:41:04.840Z,29.49
2023-05-20T15:43:36.456Z,29.70
2023-05-20T15:46:08.000Z,29.72
2023-05-20T15:48:39.878Z,29.49
2023-05-20T15:51:11.365Z,29.70
2023-05-20T15:53:44.779Z,29.69
2023-05-20T15:56:20.299Z,29.56
2023-05-20T15:58:54.587Z,29.67
2023-05-20T16:01:28.464Z,29.64
2023-05-20T16:04:04.681Z,29.71
2023-05-20T16:06:40.566Z,29.72
2023-05-20T16:09:12.043Z,29.58
2023-05-20T16:11:43.441Z,29.70
2023-05-20T16:14:15.087Z,29.70
2023-05-20T16:16:47.926Z,29.70
2023-05-20T16:19:19.840Z,29.75
2023-05-20T16:21:51.269Z,29.75
2023-05-20T16:24:25.805Z,29.78
2023-05-20T16:26:57.437Z,29.79
2023-05-20T16:29:28.983Z,29.78
2023-05-20T16:32:00.540Z,29.73
2023-05-20T16:34:34.698Z,29.55
2023-05-20T16:37:09.231Z,29.73
2023-05-20T16:39:40.912Z,29.70
2023-05-20T16:42:14.703Z,29.65
2023-05-20T16:44:53.882Z,29.77
2023-05-20T16:47:25.301Z,29.77
2023-05-20T16:50:07.399Z,29.70
2023-05-20T16:52:41.650Z,29.51
2023-05-20T16:55:14.980Z,29.81
2023-05-20T16:57:46.204Z,29.73
2023-05-20T17:00:18.182Z,29.63
2023-05-20T17:02:49.514Z,29.77
2023-05-20T17:05:21.333Z,29.76
2023-05-20T17:07:52.566Z,29.69
2023-05-20T17:10:23.959Z,29.74
2023-05-20T17:12:55.105Z,29.79
2023-05-20T17:15:28.763Z,29.80
2023-05-20T17:18:04.306Z,29.76
2023-05-20T17:20:36.316Z,29.81
2023-05-20T17:23:07.833Z,29.77
2023-05-20T17:25:40.825Z,29.76
2023-05-20T17:28:12.247Z,29.77
2023-05-20T17:30:46.313Z,29.74
2023-05-20T17:33:17.385Z,29.74
2023-05-20T17:35:48.819Z,29.70
2023-05-20T17:38:20.699Z,29.59
2023-05-20T17:40:51.827Z,29.58
2023-05-20T17:43:23.430Z,29.67
2023-05-20T17:45:55.028Z,29.68
2023-05-20T17:48:26.053Z,29.62
2023-05-20T17:50:59.496Z,29.50
2023-05-20T17:53:30.702Z,29.62
2023-05-20T17:56:02.736Z,29.56
2023-05-20T17:58:35.288Z,29.70
2023-05-20T18:01:10.774Z,29.57
2023-05-20T18:03:42.121Z,29.56
2023-05-20T18:06:13.886Z,29.64
2023-05-20T18:08:44.770Z,29.58
2023-05-20T18:11:15.890Z,29.63
2023-05-20T18:13:46.826Z,29.51
2023-05-20T18:16:18.213Z,29.62
2023-05-20T18:18:49.282Z,29.57
2023-05-20T18:21:21.407Z,29.57
2023-05-20T18:23:52.909Z,29.48
2023-05-20T18:26:24.480Z,29.48
2023-05-20T18:28:55.537Z,29.53
2023-05-20T18:31:26.780Z,29.45
2023-05-20T18:33:57.780Z,29.54
2023-05-20T18:36:29.058Z,29.54
2023-05-20T18:39:00.422Z,29.52
2023-05-20T18:41:43.164Z,29.49
2023-05-20T18:44:18.319Z,29.48
2023-05-20T18:46:49.924Z,29.47
2023-05-20T18:49:20.672Z,29.50
2023-05-20T18:51:51.820Z,29.31
2023-05-20T18:54:22.512Z,29.46
2023-05-20T18:56:53.989Z,29.42
2023-05-20T18:59:25.216Z,29.44
2023-05-20T19:01:56.141Z,29.39
2023-05-20T19:04:27.093Z,29.40
2023-05-20T19:06:59.137Z,29.36
2023-05-20T19:09:29.657Z,29.37
2023-05-20T19:12:00.930Z,29.34
2023-05-20T19:14:32.099Z,29.34
2023-05-20T19:17:03.320Z,29.29
2023-05-20T19:19:34.061Z,29.29
2023-05-20T19:22:05.154Z,29.26
2023-05-20T19:24:36.127Z,29.33
2023-05-20T19:27:07.456Z,29.26
2023-05-20T19:29:38.240Z,29.33
2023-05-20T19:32:09.306Z,29.06
2023-05-20T19:34:40.003Z,29.30
2023-05-20T19:37:10.893Z,29.29
2023-05-20T19:39:41.985Z,29.26
2023-05-20T19:42:12.848Z,29.26
2023-05-20T19:44:43.602Z,29.27
2023-05-20T19:47:14.576Z,29.29
2023-05-20T19:49:45.251Z,29.25
2023-05-20T19:52:16.325Z,29.23
2023-05-20T19:54:46.986Z,29.25
2023-05-20T19:57:18.268Z,29.24
2023-05-20T19:59:49.818Z,28.84
2023-05-20T20:02:22.211Z,29.26
2023-05-20T20:04:53.328Z,29.20
2023-05-20T20:07:25.166Z,29.23
2023-05-20T20:09:56.755Z,29.25
2023-05-20T20:12:27.885Z,28.93
2023-05-20T20:14:58.489Z,29.18
2023-05-20T20:17:29.682Z,29.19
2023-05-20T20:20:01.190Z,29.22
2023-05-20T20:22:32.353Z,29.21
2023-05-20T20:25:03.079Z,29.10
2023-05-20T20:27:34.946Z,29.15
2023-05-20T20:30:05.851Z,29.15
2023-05-20T20:32:37.803Z,29.05
2023-05-20T20:35:09.359Z,29.16
2023-05-20T20:37:40.263Z,29.16
2023-05-20T20:40:14.427Z,29.10
2023-05-20T20:42:46.512Z,29.17
2023-05-20T20:45:17.633Z,29.14
2023-05-20T20:47:52.209Z,29.11
2023-05-20T20:50:23.212Z,29.13
2023-05-20T20:52:54.142Z,29.11
2023-05-20T20:55:25.091Z,29.01
2023-05-20T20:57:58.045Z,29.05
2023-05-20T21:00:29.238Z,29.01
2023-05-20T21:03:00.484Z,28.94
2023-05-20T21:05:31.271Z,29.03
2023-05-20T21:08:04.559Z,28.98
2023-05-20T21:10:37.495Z,28.41
2023-05-20T21:13:08.487Z,28.96
2023-05-20T21:15:39.123Z,28.91
2023-05-20T21:18:09.940Z,29.01
2023-05-20T21:20:40.702Z,28.89
2023-05-20T21:23:11.789Z,29.02
2023-05-20T21:25:42.392Z,29.03
2023-05-20T21:28:13.728Z,28.85
2023-05-20T21:30:44.391Z,28.95
2023-05-20T21:33:15.350Z,28.96
2023-05-20T21:35:45.936Z,28.97
2023-05-20T21:38:17.295Z,28.96
2023-05-20T21:40:48.314Z,28.88
2023-05-20T21:43:19.449Z,28.96
2023-05-20T21:45:50.327Z,28.99
2023-05-20T21:48:21.502Z,28.96
2023-05-20T21:50:52.291Z,29.00
2023-05-20T21:53:23.220Z,28.77
2023-05-20T21:55:54.297Z,29.02
2023-05-20T21:58:25.050Z,28.85
2023-05-20T22:00:55.730Z,28.94
2023-05-20T22:03:26.722Z,28.93
2023-05-20T22:05:57.594Z,28.86
2023-05-20T22:08:29.554Z,28.91
2023-05-20T22:11:02.330Z,28.91
2023-05-20T22:13:34.587Z,28.92
2023-05-20T22:16:06.161Z,28.79
2023-05-20T22:18:37.154Z,28.59
2023-05-20T22:21:07.906Z,28.83
2023-05-20T22:23:38.798Z,28.87
2023-05-20T22:26:12.701Z,28.88
2023-05-20T22:28:43.653Z,28.86
2023-05-20T22:31:14.388Z,28.87
2023-05-20T22:33:45.393Z,28.85
2023-05-20T22:36:16.054Z,28.75
2023-05-20T22:38:47.381Z,28.79
2023-05-20T22:41:18.490Z,28.78
2023-05-20T22:43:49.692Z,28.82
2023-05-20T22:46:20.415Z,28.84
2023-05-20T22:48:54.240Z,28.85
2023-05-20T22:51:25.940Z,28.86
2023-05-20T22:53:57.307Z,28.56
2023-05-20T22:56:27.985Z,28.79
2023-05-20T22:58:59.093Z,28.74
2023-05-20T23:01:29.808Z,28.81
2023-05-20T23:04:01.021Z,28.86
2023-05-20T23:06:31.612Z,28.79
2023-05-20T23:09:02.510Z,29.02
2023-05-20T23:11:33.163Z,29.18
2023-05-20T23:14:04.212Z,29.33
2023-05-20T23:16:35.751Z,29.45
2023-05-20T23:19:06.741Z,29.51
2023-05-20T23:21:38.740Z,29.58
2023-05-20T23:24:10.000Z,29.52
2023-05-20T23:26:40.985Z,29.75
2023-05-20T23:29:12.171Z,29.70
2023-05-20T23:31:42.969Z,29.82
2023-05-20T23:34:13.820Z,29.98
2023-05-20T23:36:44.516Z,29.98
2023-05-20T23:39:16.890Z,30.10
2023-05-20T23:41:49.294Z,30.05
2023-05-20T23:44:20.240Z,30.20
2023-05-20T23:46:50.997Z,30.12
2023-05-20T23:49:25.614Z,30.28
2023-05-20T23:51:56.257Z,30.33
2023-05-20T23:54:27.124Z,30.37
2023-05-20T23:56:57.914Z,30.40
2023-05-20T23:59:29.047Z,30.48
